Homer, AK (99603)

12:03 AM AKDT on October 22, 2014 (GMT -0800)
KAKHOMER5 | Change Station
CLOSE
Current Station
Personal Weather Station
Location: Homer, AK
Elevation: 1152 ft
Nearby Weather Stations

Elev 1152 ft 59.67 °N, 151.49 °W | Updated 10 seconds ago

Clear
Clear
34.4 °F
Feels Like 34 °F
N
2.0
Wind Variable Wind from North
Gusts 7.0 mph

Today
High -- | Low -- °F
--% Chance of Precip.
Yesterday
High -- | Low -- °F
Precip. -- in
9:02 AM 6:37 PM
Waning Crescent, 3% visible
Pressure 29.23 in
Visibility 10.0 miles
Clouds Clear
Windchill 34 °F
Dew Point 30 °F
Humidity 83%
Rainfall 0.00 in
Snow Depth Not available.
UV 0 out of 12
Pollen Not available.
Air Quality Not available.
Flu Activity Sporadic
METAR PAHO 220753Z AUTO 02004KT 10SM CLR 00/M03 A2922 RMK AO2 SLP896 T00001033 TSNO

More Conditions Fewer Conditions

Pressure 29.23 in
Visibility 10.0 miles
Clouds Clear
Windchill 34 °F
Dew Point 30 °F
Humidity 83%
Rainfall 0.00 in
Snow Depth Not available.
UV 0 out of 12
Pollen Not available.
Air Quality Not available.
Flu Activity Sporadic
METAR PAHO 220753Z AUTO 02004KT 10SM CLR 00/M03 A2922 RMK AO2 SLP896 T00001033 TSNO

More Conditions Fewer Conditions

10-Day Weather Forecast

Almanac

Astronomy

Oct. 22, 2014 Rise Set
Actual Time 9:02 AM AKDT 6:37 PM AKDT
Civil Twilight 8:19 AM AKDT 7:19 PM AKDT
Nautical Twilight 7:31 AM AKDT 8:07 PM AKDT
Astronomical Twilight 6:43 AM AKDT 8:55 PM AKDT
Moon 7:38 AM AKDT 6:19 PM AKDT
Length of Visible Light 11h 00m
Length of Day
9h 34m
Tomorrow will be 5m 14s shorter.
Waning Crescent, 3% of the Moon is Illuminated
Today
Waning Crescent
Oct 23
New
Oct 30
First Quarter
Nov 6
Full
Nov 14
Last Quarter

Community

WunderPhotos

Upload Photos

1,763,889 photos uploaded!

Nearby

Snow Depth

Station Depth Elevation
Mcneil Canyon 1 in 1320 ft
MF Bradley River 0 in 2300 ft
Port Graham 0 in 300 ft
Nuka Glacier 81 in 1250 ft
Cooper Lake 1 in 1200 ft

Earthquake Activity

City Distance Mag. Time & Date
No recent earthquake activity has been reported nearby.
Minimum magnitude displayed is 2.5.

Coastal Water Temperatures

Place Temperature
No Stations Reporting

Nearby Weather Stations